Terminal Aerodrome Forecast
Issued by NWS

Home | Current Version | Previous Version | Text Only | Print | Product List | Glossary On
Versions: 1 2 3 4 5 6 7 8 9 10 11 12 13 14 15 16 17 18
000
FTUS45 KBOU 202336
TAFBJC
TAF
KBJC 202336Z 2100/2124 01009KT P6SM SCT060 SCT120 BKN200
     FM210100 04011KT P6SM SCT010 BKN030 OVC050
      TEMPO 2103/2106 2SM -FZDZ BR BKN008 OVC016
     FM210600 03009KT 1SM -FZDZ BR SCT004 OVC008
      TEMPO 2108/2111 1/2SM -SN FZFG OVC004
     FM211100 03010G20KT 3/4SM -SN BR OVC007
     FM211800 35014G25KT 1 1/2SM -SN BR OVC007
     FM212200 34012G22KT 3SM -SHSN BKN009 OVC016=

USA.gov is the U.S. government's official web portal to all federal, state and local government web resources and services.